Time;durP1;ratioP1;P1;durP2;ratioP2;P2;SDS_P1;SDS_P2;PMS_P1;PMS_P2;Temp;Humidity;BMP_temperature;BMP_pressure;BME280_temperature;BME280_humidity;BME280_pressure;Samples;Min_cycle;Max_cycle;Signal;HPM_P1;HPM_P2
2022/01/02 00:00:29;;;;;;;11.70;3.70;;;;;;;17.73;100.00;101657.31;5096097;28;20370;-51
2022/01/02 00:03:02;;;;;;;7.83;3.53;;;;;;;17.50;100.00;101649.81;5097630;28;20304;-55
2022/01/02 00:05:30;;;;;;;11.40;4.40;;;;;;;17.39;100.00;101654.09;5097130;28;20292;-51
2022/01/02 00:08:07;;;;;;;8.87;3.93;;;;;;;17.55;100.00;101633.78;5096686;28;20295;-52
2022/01/02 00:10:39;;;;;;;;;;;;;;;17.56;100.00;101651.66;5097467;28;20268;-52
2022/01/02 00:13:08;;;;;;;13.33;3.90;;;;;;;17.30;100.00;101655.41;5097504;28;19955;-51
2022/01/02 00:15:33;;;;;;;12.63;4.27;;;;;;;17.13;100.00;101658.66;5097131;28;20277;-50
2022/01/02 00:18:10;;;;;;;11.57;4.13;;;;;;;17.10;100.00;101651.00;5096551;28;20287;-51
2022/01/02 00:20:45;;;;;;;11.03;3.50;;;;;;;16.81;100.00;101663.22;5097641;28;20282;-52
2022/01/02 00:23:17;;;;;;;7.40;4.20;;;;;;;16.89;100.00;101671.06;5096124;28;20356;-54
2022/01/02 00:25:42;;;;;;;8.93;4.17;;;;;;;17.15;100.00;101677.38;5097128;28;20310;-53
2022/01/02 00:28:11;;;;;;;12.03;4.50;;;;;;;16.92;100.00;101647.13;5095947;28;20659;-51
2022/01/02 00:30:37;;;;;;;26.70;5.30;;;;;;;16.82;100.00;101635.16;5095612;28;20300;-51
2022/01/02 00:33:03;;;;;;;15.65;4.80;;;;;;;16.86;100.00;101628.28;5096003;28;20345;-51
2022/01/02 00:35:29;;;;;;;11.13;4.43;;;;;;;16.83;100.00;101626.00;5097363;28;20048;-53
2022/01/02 00:37:54;;;;;;;10.48;4.57;;;;;;;16.63;100.00;101626.97;5096960;28;20507;-53
2022/01/02 00:40:20;;;;;;;12.00;4.53;;;;;;;16.97;100.00;101621.34;5095244;28;20117;-52
2022/01/02 00:42:52;;;;;;;18.50;4.95;;;;;;;16.41;100.00;101611.09;5095338;28;20051;-52
2022/01/02 00:45:26;;;;;;;20.23;5.17;;;;;;;16.52;100.00;101614.16;5095455;28;20031;-54
2022/01/02 00:48:18;;;;;;;16.90;5.83;;;;;;;16.57;100.00;101601.66;5095135;28;20277;-50
2022/01/02 00:51:00;;;;;;;20.33;6.67;;;;;;;16.31;100.00;101605.31;5085449;28;20281;-50
2022/01/02 00:53:35;;;;;;;20.67;7.80;;;;;;;16.00;100.00;101596.94;5079295;28;20288;-53
2022/01/02 00:56:02;;;;;;;22.57;7.13;;;;;;;15.89;100.00;101601.13;5096187;28;20288;-53
2022/01/02 00:58:39;;;;;;;18.57;5.97;;;;;;;15.77;100.00;101606.31;5095490;28;20284;-50
2022/01/02 01:01:06;;;;;;;;;;;;;;;15.64;100.00;101614.44;5098934;28;20724;-52
2022/01/02 01:03:33;;;;;;;32.55;10.48;;;;;;;15.52;100.00;101608.88;5088338;28;19912;-54
2022/01/02 01:06:03;;;;;;;42.67;11.87;;;;;;;15.61;100.00;101594.13;5090734;28;20074;-51
2022/01/02 01:08:31;;;;;;;31.80;13.13;;;;;;;15.34;100.00;101599.56;5086982;28;20049;-53
2022/01/02 01:10:58;;;;;;;31.27;11.07;;;;;;;15.02;100.00;101598.53;5101337;28;20280;-51
2022/01/02 01:13:24;;;;;;;57.00;13.13;;;;;;;14.90;100.00;101604.53;5100079;28;20264;-54
2022/01/02 01:15:51;;;;;;;28.13;11.43;;;;;;;14.83;100.00;101587.53;5101826;28;20277;-53
2022/01/02 01:18:17;;;;;;;42.35;9.93;;;;;;;14.91;100.00;101586.50;5104573;28;20044;-50
2022/01/02 01:20:45;;;;;;;39.13;10.60;;;;;;;14.71;100.00;101589.19;5098643;28;20048;-53
2022/01/02 01:23:16;;;;;;;36.57;12.13;;;;;;;15.51;100.00;101579.41;5082576;28;20040;-53
2022/01/02 01:25:46;;;;;;;33.93;11.93;;;;;;;15.56;100.00;101575.06;5098389;28;20265;-49
2022/01/02 01:28:13;;;;;;;23.43;8.97;;;;;;;15.74;100.00;101587.06;5098835;28;20273;-50
2022/01/02 01:30:39;;;;;;;23.03;8.63;;;;;;;15.80;100.00;101567.31;5105021;28;20337;-52
2022/01/02 01:33:04;;;;;;;38.97;8.38;;;;;;;15.70;100.00;101562.38;5101069;28;20273;-50
2022/01/02 01:35:30;;;;;;;29.20;11.60;;;;;;;15.75;100.00;101553.66;5097659;28;20044;-50
2022/01/02 01:37:55;;;;;;;23.95;8.60;;;;;;;15.83;100.00;101549.91;5098074;28;20046;-49
2022/01/02 01:40:21;;;;;;;24.33;9.83;;;;;;;15.54;100.00;101560.97;5096065;28;20044;-50
2022/01/02 01:42:59;;;;;;;28.40;12.75;;;;;;;15.72;100.00;101554.09;5095286;28;20276;-50
2022/01/02 01:45:30;;;;;;;31.50;11.43;;;;;;;15.59;100.00;101542.28;5094712;28;20486;-49
2022/01/02 01:48:03;;;;;;;27.87;8.60;;;;;;;15.69;100.00;101530.25;5093910;28;20739;-45
2022/01/02 01:50:41;;;;;;;24.03;8.23;;;;;;;15.49;100.00;101533.81;5094426;28;20272;-45
2022/01/02 01:53:09;;;;;;;25.80;7.53;;;;;;;15.60;100.00;101522.38;5094407;28;20280;-45
2022/01/02 01:55:37;;;;;;;19.50;7.33;;;;;;;15.65;100.00;101518.19;5094099;28;20475;-47
2022/01/02 01:58:04;;;;;;;23.73;6.87;;;;;;;15.63;100.00;101511.16;5093768;28;20293;-48
2022/01/02 02:00:35;;;;;;;18.60;6.17;;;;;;;15.74;100.00;101492.66;5093251;28;20764;-47
2022/01/02 02:03:04;;;;;;;20.40;6.90;;;;;;;15.74;100.00;101496.19;5078150;28;20598;-45
2022/01/02 02:05:32;;;;;;;20.00;5.65;;;;;;;15.69;100.00;101500.59;5093916;28;20277;-43
2022/01/02 02:07:58;;;;;;;24.10;6.17;;;;;;;15.87;100.00;101502.56;5093269;28;20040;-45
2022/01/02 02:12:58;;;;;;;21.33;7.23;;;;;;;15.84;100.00;101490.34;5093542;28;20346;-43
2022/01/02 02:15:27;;;;;;;18.57;5.87;;;;;;;15.76;100.00;101494.09;5093348;28;20368;-46
2022/01/02 02:17:53;;;;;;;13.82;6.53;;;;;;;15.84;100.00;101487.63;5076922;28;20308;-44
2022/01/02 02:20:21;;;;;;;23.73;6.20;;;;;;;15.89;100.00;101489.72;5093875;28;20055;-44
2022/01/02 02:22:52;;;;;;;19.97;5.97;;;;;;;16.15;100.00;101486.06;5093821;28;20352;-44
2022/01/02 02:25:20;;;;;;;23.47;6.83;;;;;;;15.84;100.00;101484.94;5093079;28;20763;-48
2022/01/02 02:27:59;;;;;;;16.33;6.03;;;;;;;15.72;100.00;101479.38;5092983;28;20268;-46
2022/01/02 02:30:28;;;;;;;19.00;5.93;;;;;;;15.75;100.00;101470.88;5092689;28;20367;-44
2022/01/02 02:32:56;;;;;;;22.63;5.43;;;;;;;16.12;100.00;101474.88;5092967;28;20304;-49
2022/01/02 02:35:25;;;;;;;26.13;6.77;;;;;;;15.75;100.00;101472.75;5093085;28;20751;-43
2022/01/02 02:37:50;;;;;;;21.83;6.90;;;;;;;15.68;100.00;101463.84;5075964;28;20257;-45
2022/01/02 02:40:19;;;;;;;17.83;5.90;;;;;;;15.75;100.00;101454.69;5092474;28;20376;-45
2022/01/02 02:43:00;;;;;;;25.00;8.53;;;;;;;15.71;100.00;101458.84;5092727;28;20326;-45
2022/01/02 02:50:56;;;;;;;26.00;9.37;;;;;;;16.13;100.00;101444.97;5094828;28;20268;-46
2022/01/02 02:53:22;;;;;;;24.43;8.50;;;;;;;16.20;100.00;101443.06;5075876;28;20814;-43
2022/01/02 02:55:54;;;;;;;25.23;8.87;;;;;;;16.26;100.00;101437.81;5092809;28;20698;-44
2022/01/02 03:01:00;;;;;;;19.67;7.67;;;;;;;16.29;100.00;101432.81;5093174;28;20269;-50
2022/01/02 03:03:25;;;;;;;;;;;;;;;16.07;100.00;101429.66;5094733;28;20627;-44
2022/01/02 03:05:52;;;;;;;20.23;6.30;;;;;;;16.16;100.00;101406.78;5092637;28;19912;-44
2022/01/02 03:08:17;;;;;;;;;;;;;;;16.33;100.00;101427.78;5092779;28;20050;-46
2022/01/02 03:10:43;;;;;;;16.50;4.70;;;;;;;16.11;100.00;101436.25;5092503;28;20006;-43
2022/01/02 03:13:08;;;;;;;12.88;4.50;;;;;;;16.01;100.00;101439.44;5093993;28;20066;-49
2022/01/02 03:15:34;;;;;;;13.75;5.13;;;;;;;16.08;100.00;101435.88;5092283;28;20548;-47
2022/01/02 03:17:59;;;;;;;18.38;4.93;;;;;;;16.01;100.00;101422.44;5093831;28;20048;-50
2022/01/02 03:20:25;;;;;;;15.73;4.60;;;;;;;16.04;100.00;101430.09;5094323;28;20040;-48
2022/01/02 03:22:51;;;;;;;15.35;5.03;;;;;;;15.83;100.00;101423.94;5092147;28;20481;-46
2022/01/02 03:25:17;;;;;;;20.17;5.77;;;;;;;15.85;100.00;101419.16;5094525;28;20177;-44
2022/01/02 03:27:44;;;;;;;18.00;4.80;;;;;;;15.82;100.00;101433.09;5097264;28;20114;-48
2022/01/02 03:30:11;;;;;;;21.75;6.00;;;;;;;15.87;100.00;101402.78;5096420;28;20744;-46
2022/01/02 03:32:37;;;;;;;18.00;6.57;;;;;;;16.04;100.00;101405.81;5096401;28;20039;-47
2022/01/02 03:35:04;;;;;;;28.05;6.78;;;;;;;16.14;100.00;101384.53;5097634;28;20271;-48
2022/01/02 03:37:32;;;;;;;13.02;4.85;;;;;;;16.45;100.00;101399.06;5096527;28;20036;-44
2022/01/02 03:39:59;;;;;;;13.10;4.17;;;;;;;16.63;100.00;101394.75;5097011;28;20066;-45
2022/01/02 03:42:25;;;;;;;13.13;4.63;;;;;;;16.39;100.00;101397.25;5096183;28;20268;-49
2022/01/02 03:44:50;;;;;;;15.13;4.38;;;;;;;16.91;100.00;101385.31;5096635;28;20359;-45
2022/01/02 03:47:16;;;;;;;14.40;4.10;;;;;;;16.78;100.00;101381.69;5079257;28;20044;-46
2022/01/02 03:49:42;;;;;;;16.85;4.10;;;;;;;17.08;100.00;101395.56;5079180;28;20036;-50
2022/01/02 03:52:08;;;;;;;10.68;3.25;;;;;;;17.04;100.00;101374.38;5096519;28;20040;-47
2022/01/02 03:54:34;;;;;;;21.67;4.60;;;;;;;17.27;100.00;101362.03;5079428;28;20032;-48
2022/01/02 03:57:00;;;;;;;11.55;3.45;;;;;;;17.31;100.00;101362.44;5095909;28;20494;-47
2022/01/02 03:59:25;;;;;;;15.13;3.17;;;;;;;17.01;100.00;101374.03;5095895;28;20040;-46
2022/01/02 04:01:51;;;;;;;12.15;3.70;;;;;;;17.18;100.00;101366.97;5097402;28;20035;-48
2022/01/02 04:04:17;;;;;;;14.98;3.58;;;;;;;16.93;100.00;101356.19;5097047;28;20047;-49
2022/01/02 04:06:42;;;;;;;12.52;3.60;;;;;;;16.96;100.00;101352.25;5095897;28;20040;-48
2022/01/02 04:09:08;;;;;;;16.35;3.95;;;;;;;17.10;100.00;101351.03;5096149;28;20478;-43
2022/01/02 04:11:34;;;;;;;12.73;3.22;;;;;;;16.88;100.00;101358.75;5096706;28;20111;-47
2022/01/02 04:14:00;;;;;;;19.30;4.68;;;;;;;16.84;100.00;101357.53;5096888;28;20039;-44
2022/01/02 04:16:26;;;;;;;17.60;5.88;;;;;;;16.77;100.00;101369.25;5094953;28;20114;-43
2022/01/02 04:18:51;;;;;;;11.38;4.40;;;;;;;16.75;100.00;101386.75;5078692;28;20468;-42
2022/01/02 04:21:18;;;;;;;26.95;5.93;;;;;;;16.53;100.00;101373.66;5095357;28;20036;-43
2022/01/02 04:23:43;;;;;;;18.60;6.95;;;;;;;16.44;100.00;101375.81;5095509;28;20135;-44
2022/01/02 04:26:10;;;;;;;26.98;5.95;;;;;;;16.54;100.00;101374.47;5079346;28;20394;-47
2022/01/02 04:28:36;;;;;;;14.47;4.40;;;;;;;15.86;100.00;101379.56;5095785;28;20144;-46
2022/01/02 04:31:02;;;;;;;27.48;6.30;;;;;;;15.83;100.00;101358.41;5096554;28;20823;-48
2022/01/02 04:33:30;;;;;;;15.43;4.70;;;;;;;15.70;100.00;101356.63;5079234;28;20395;-45
2022/01/02 04:35:55;;;;;;;18.50;5.73;;;;;;;15.88;100.00;101351.34;5078321;28;20291;-47
2022/01/02 04:38:21;;;;;;;27.63;6.05;;;;;;;15.80;100.00;101335.41;5094423;28;20040;-49
2022/01/02 04:40:48;;;;;;;17.23;6.03;;;;;;;15.94;100.00;101340.75;5096359;28;20433;-45
2022/01/02 04:43:14;;;;;;;21.50;5.23;;;;;;;16.05;100.00;101334.63;5095014;28;20484;-48
2022/01/02 04:45:40;;;;;;;18.60;7.20;;;;;;;16.12;100.00;101335.38;5095960;28;20352;-46
2022/01/02 04:48:06;;;;;;;;;;;;;;;15.79;100.00;101339.13;5096494;28;20055;-47
2022/01/02 04:50:32;;;;;;;23.40;8.60;;;;;;;15.85;100.00;101330.16;5096151;28;19916;-46
2022/01/02 04:52:58;;;;;;;39.13;8.98;;;;;;;15.72;100.00;101319.50;5095035;28;20051;-48
2022/01/02 04:55:24;;;;;;;28.25;7.55;;;;;;;15.80;100.00;101316.53;5095132;28;20131;-50
2022/01/02 04:57:49;;;;;;;29.40;8.80;;;;;;;15.75;100.00;101308.28;5094729;28;20124;-51
2022/01/02 05:00:15;;;;;;;21.10;9.35;;;;;;;15.90;100.00;101307.97;5077885;28;20440;-45
2022/01/02 05:02:41;;;;;;;29.63;9.52;;;;;;;15.72;100.00;101314.09;5094619;28;20042;-48
2022/01/02 05:05:07;;;;;;;29.58;9.85;;;;;;;15.99;100.00;101293.16;5094595;28;20040;-48
2022/01/02 05:07:33;;;;;;;25.40;10.73;;;;;;;15.91;100.00;101288.06;5078244;28;20040;-44
2022/01/02 05:10:00;;;;;;;26.83;8.33;;;;;;;15.93;100.00;101287.84;5094238;28;20098;-47
2022/01/02 05:12:26;;;;;;;27.30;10.90;;;;;;;15.84;100.00;101295.34;5077378;28;20279;-44
2022/01/02 05:14:53;;;;;;;23.75;8.75;;;;;;;15.85;100.00;101302.38;5095244;28;20360;-43
2022/01/02 05:17:19;;;;;;;27.40;11.70;;;;;;;16.08;100.00;101291.00;5094781;28;20060;-48
2022/01/02 05:19:45;;;;;;;23.50;8.43;;;;;;;15.89;100.00;101293.66;5094851;28;20753;-45
2022/01/02 05:22:11;;;;;;;19.35;5.88;;;;;;;15.91;100.00;101274.56;5094525;28;20100;-46
2022/01/02 05:24:37;;;;;;;18.45;5.38;;;;;;;15.78;100.00;101270.06;5077487;28;20044;-54
2022/01/02 05:27:03;;;;;;;18.10;5.10;;;;;;;15.62;100.00;101263.34;5061311;28;20143;-47
2022/01/02 05:29:29;;;;;;;20.00;4.47;;;;;;;15.69;100.00;101255.22;5077019;28;20123;-43
2022/01/02 05:31:54;;;;;;;13.70;4.77;;;;;;;15.84;100.00;101257.59;5077250;28;20065;-45
2022/01/02 05:34:21;;;;;;;25.65;5.25;;;;;;;15.69;100.00;101247.94;5077332;28;20027;-47
2022/01/02 05:36:50;;;;;;;19.13;5.40;;;;;;;15.78;100.00;101248.50;5077122;28;20052;-48
2022/01/02 05:39:19;;;;;;;15.90;5.50;;;;;;;16.01;100.00;101249.78;5094485;28;20269;-46
2022/01/02 05:41:50;;;;;;;17.43;4.93;;;;;;;15.94;100.00;101257.13;5093809;28;20269;-44
2022/01/02 05:44:17;;;;;;;27.43;5.97;;;;;;;15.85;100.00;101249.25;5093826;28;20269;-43
2022/01/02 05:46:43;;;;;;;;;;;;;;;15.62;100.00;101255.28;5093910;28;20363;-44
2022/01/02 05:49:10;;;;;;;24.10;5.97;;;;;;;15.61;100.00;101242.84;5077335;28;19920;-43
2022/01/02 05:51:35;;;;;;;;;;;;;;;15.67;100.00;101233.88;5095657;28;20347;-46
2022/01/02 05:54:02;;;;;;;15.37;5.73;;;;;;;16.01;100.00;101214.72;5093634;28;19970;-48
2022/01/02 05:56:28;;;;;;;15.20;5.27;;;;;;;15.64;100.00;101207.34;5076540;28;20035;-48
2022/01/02 05:58:54;;;;;;;20.88;6.07;;;;;;;15.88;100.00;101189.50;5094627;28;20268;-45
2022/01/02 06:01:20;;;;;;;16.88;6.10;;;;;;;15.65;100.00;101178.50;5093557;28;20369;-46
2022/01/02 06:03:46;;;;;;;17.52;5.30;;;;;;;15.57;100.00;101156.19;5093493;28;20134;-44
2022/01/02 06:06:12;;;;;;;13.70;5.32;;;;;;;15.42;100.00;101151.13;5094663;28;20458;-49
2022/01/02 06:08:38;;;;;;;17.30;5.50;;;;;;;15.61;100.00;101138.50;5093336;28;20097;-44
2022/01/02 06:11:04;;;;;;;19.65;5.43;;;;;;;15.78;100.00;101137.94;5094158;28;20038;-44
2022/01/02 06:13:30;;;;;;;22.80;6.53;;;;;;;15.84;100.00;101123.56;5093670;28;20549;-44
2022/01/02 06:15:55;;;;;;;23.05;6.82;;;;;;;15.80;100.00;101116.97;5094481;28;20468;-48
2022/01/02 06:18:21;;;;;;;21.30;7.07;;;;;;;16.07;100.00;101111.31;5093368;28;20077;-45
2022/01/02 06:20:46;;;;;;;15.33;5.53;;;;;;;15.71;100.00;101108.34;5093172;28;20755;-46
2022/01/02 06:23:12;;;;;;;13.02;5.20;;;;;;;15.46;100.00;101101.13;5094373;28;20355;-46
2022/01/02 06:25:38;;;;;;;18.10;6.25;;;;;;;15.67;100.00;101098.22;5093609;28;20463;-45
2022/01/02 06:28:03;;;;;;;16.43;6.47;;;;;;;15.71;100.00;101076.00;5094496;28;20036;-48
2022/01/02 06:30:30;;;;;;;14.57;6.05;;;;;;;15.95;100.00;101076.16;5076116;28;20456;-46
2022/01/02 06:32:56;;;;;;;11.00;5.65;;;;;;;15.91;100.00;101075.81;5076915;28;20139;-50
2022/01/02 06:35:25;;;;;;;20.33;5.73;;;;;;;15.43;100.00;101071.09;5093668;28;20030;-45
2022/01/02 06:37:52;;;;;;;17.53;5.83;;;;;;;15.65;100.00;101070.66;5092562;28;20277;-45
2022/01/02 06:40:20;;;;;;;13.37;5.57;;;;;;;15.51;100.00;101070.81;5093077;28;20277;-47
2022/01/02 06:42:46;;;;;;;22.50;5.67;;;;;;;15.43;100.00;101046.84;5092797;28;20288;-46
2022/01/02 06:45:13;;;;;;;17.92;5.82;;;;;;;15.76;100.00;101037.59;5092768;28;20371;-44
2022/01/02 06:47:38;;;;;;;12.40;5.07;;;;;;;15.72;100.00;101039.09;5092729;28;20074;-46
2022/01/02 06:50:05;;;;;;;14.25;5.55;;;;;;;15.87;100.00;101036.81;5092575;28;20369;-44
2022/01/02 06:52:30;;;;;;;;;;;;;;;15.68;100.00;101022.53;5093007;28;20044;-42
2022/01/02 06:54:56;;;;;;;20.20;5.23;;;;;;;15.56;100.00;101046.72;5094373;28;19918;-45
2022/01/02 06:57:22;;;;;;;14.48;5.10;;;;;;;15.76;100.00;101045.66;5092959;28;20435;-44
2022/01/02 06:59:48;;;;;;;;;;;;;;;15.72;100.00;101049.88;5092433;28;20045;-48
2022/01/02 07:02:15;;;;;;;12.87;4.60;;;;;;;15.68;100.00;101043.25;5092436;28;20008;-50
2022/01/02 07:04:41;;;;;;;11.77;5.60;;;;;;;15.75;100.00;101028.66;5092482;28;20288;-46
2022/01/02 07:07:06;;;;;;;18.00;5.50;;;;;;;15.68;100.00;101036.00;5092367;28;20680;-47
2022/01/02 07:09:32;;;;;;;18.23;4.72;;;;;;;15.78;100.00;101038.19;5092992;28;20071;-44
2022/01/02 07:12:01;;;;;;;12.02;4.50;;;;;;;15.67;100.00;101025.44;5093428;28;20043;-46
2022/01/02 07:14:27;;;;;;;18.67;5.70;;;;;;;15.81;100.00;101021.53;5092830;28;20155;-49
2022/01/02 07:16:55;;;;;;;;;;;;;;;15.76;100.00;101010.63;5094618;28;20353;-48
2022/01/02 07:19:21;;;;;;;14.90;4.20;;;;;;;15.68;100.00;100994.72;5093305;28;20394;-44
2022/01/02 07:21:48;;;;;;;15.52;5.32;;;;;;;15.45;100.00;100998.94;5093251;28;20356;-44
2022/01/02 07:24:14;;;;;;;13.47;5.40;;;;;;;15.56;100.00;100992.81;5092450;28;20044;-49
2022/01/02 07:26:39;;;;;;;14.98;4.78;;;;;;;15.88;100.00;100989.94;5093236;28;20308;-53
2022/01/02 07:29:05;;;;;;;12.90;4.78;;;;;;;15.51;100.00;100991.81;5092277;28;20040;-49
2022/01/02 07:31:30;;;;;;;22.98;5.70;;;;;;;15.40;100.00;101004.16;5093625;28;20107;-47
2022/01/02 07:33:56;;;;;;;9.60;4.22;;;;;;;15.45;100.00;101001.63;5093611;28;20384;-47
2022/01/02 07:36:21;;;;;;;13.27;5.47;;;;;;;15.73;100.00;100978.72;5093412;28;20032;-46
2022/01/02 07:38:47;;;;;;;17.13;5.27;;;;;;;15.73;100.00;100998.41;5093213;28;20503;-47
2022/01/02 07:41:12;;;;;;;15.97;5.33;;;;;;;15.56;100.00;101000.88;5092300;28;20277;-44
2022/01/02 07:43:38;;;;;;;17.60;4.32;;;;;;;15.76;100.00;101007.94;5093250;28;20044;-44
2022/01/02 07:46:03;;;;;;;13.70;4.43;;;;;;;15.49;100.00;101030.59;5092421;28;20036;-46
2022/01/02 07:48:29;;;;;;;15.87;5.23;;;;;;;15.70;100.00;101033.09;5092020;28;20105;-47
2022/01/02 07:50:54;;;;;;;14.93;6.37;;;;;;;15.58;100.00;101039.22;5093358;28;20064;-47
2022/01/02 07:53:20;;;;;;;26.00;12.70;;;;;;;15.53;100.00;101047.16;5093097;28;20400;-44
2022/01/02 07:55:45;;;;;;;24.03;9.00;;;;;;;15.61;100.00;101038.78;5092972;28;20045;-45
2022/01/02 07:58:11;;;;;;;18.97;6.27;;;;;;;15.66;100.00;101035.41;5092129;28;20050;-44
2022/01/02 08:00:36;;;;;;;14.77;5.50;;;;;;;15.70;100.00;101054.66;5093335;28;20264;-44
2022/01/02 08:03:02;;;;;;;11.15;4.85;;;;;;;15.59;100.00;101062.44;5093230;28;20142;-43
2022/01/02 08:05:27;;;;;;;11.87;4.73;;;;;;;15.77;100.00;101031.94;5075337;28;20133;-43
2022/01/02 08:07:55;;;;;;;18.93;7.47;;;;;;;16.19;100.00;101033.13;5092273;28;20332;-45
2022/01/02 08:10:20;;;;;;;15.60;8.27;;;;;;;15.76;100.00;101027.59;5092999;28;20074;-46
2022/01/02 08:12:46;;;;;;;11.82;5.60;;;;;;;15.72;100.00;101006.72;5095141;28;20280;-43
2022/01/02 08:15:12;;;;;;;9.37;4.60;;;;;;;15.84;100.00;101014.88;5096192;28;20356;-48
2022/01/02 08:17:38;;;;;;;15.25;4.28;;;;;;;15.56;100.00;101035.09;5096852;28;20272;-46
2022/01/02 08:20:04;;;;;;;16.80;5.88;;;;;;;15.48;100.00;101033.53;5096964;28;20392;-45
2022/01/02 08:22:29;;;;;;;12.13;6.05;;;;;;;15.45;100.00;101039.34;5078611;28;20036;-45
2022/01/02 08:24:55;;;;;;;19.50;9.07;;;;;;;15.34;100.00;101043.63;5097266;28;20196;-46
2022/01/02 08:27:20;;;;;;;17.65;7.57;;;;;;;15.46;100.00;101036.44;5094960;28;20040;-44
2022/01/02 08:29:46;;;;;;;11.77;4.53;;;;;;;15.66;100.00;101019.25;5096407;28;20043;-44
2022/01/02 08:32:11;;;;;;;16.97;5.80;;;;;;;15.68;100.00;101037.88;5096314;28;20269;-45
2022/01/02 08:34:37;;;;;;;16.33;4.88;;;;;;;15.68;100.00;101027.91;5096261;28;20074;-48
2022/01/02 08:37:03;;;;;;;10.73;5.00;;;;;;;15.44;100.00;101026.94;5096597;28;20040;-44
2022/01/02 08:39:29;;;;;;;10.02;4.90;;;;;;;15.50;100.00;101023.34;5096206;28;20044;-47
2022/01/02 08:41:55;;;;;;;;;;;;;;;15.57;100.00;101017.88;5095463;28;20036;-47
2022/01/02 08:44:20;;;;;;;8.77;4.07;;;;;;;15.42;100.00;101019.06;5096666;28;19942;-49
2022/01/02 08:46:46;;;;;;;13.60;4.20;;;;;;;15.46;100.00;101020.28;5078139;28;20044;-46
2022/01/02 08:49:12;;;;;;;7.75;3.70;;;;;;;15.75;100.00;101017.06;5077836;28;20040;-47
2022/01/02 08:51:38;;;;;;;13.60;4.20;;;;;;;15.64;100.00;101007.84;5077808;28;20090;-46
2022/01/02 08:54:05;;;;;;;7.35;3.30;;;;;;;15.63;100.00;101006.22;5096058;28;20425;-47
2022/01/02 08:56:32;;;;;;;9.40;4.47;;;;;;;15.68;100.00;101005.50;5094892;28;20487;-43
2022/01/02 08:58:57;;;;;;;12.05;3.72;;;;;;;15.62;100.00;101009.97;5095907;28;20279;-45
2022/01/02 09:01:23;;;;;;;7.13;3.80;;;;;;;15.46;100.00;101008.69;5096046;28;20044;-48
2022/01/02 09:03:49;;;;;;;13.83;4.10;;;;;;;15.56;100.00;101019.75;5095725;28;20468;-45
2022/01/02 09:06:15;;;;;;;7.07;3.30;;;;;;;15.65;100.00;101005.97;5094468;28;20107;-46
2022/01/02 09:08:41;;;;;;;7.40;3.90;;;;;;;15.70;100.00;100981.88;5095473;28;20036;-47
2022/01/02 09:11:08;;;;;;;11.80;3.95;;;;;;;15.50;100.00;100996.41;5095845;28;20036;-45
2022/01/02 09:13:34;;;;;;;10.87;3.90;;;;;;;15.76;100.00;100995.25;5094320;28;20051;-47
2022/01/02 09:15:59;;;;;;;8.00;3.50;;;;;;;16.14;100.00;101006.81;5093985;28;20269;-45
2022/01/02 09:18:25;;;;;;;9.43;3.50;;;;;;;16.02;100.00;101000.56;5095857;28;20036;-45
2022/01/02 09:20:51;;;;;;;10.55;4.43;;;;;;;16.16;100.00;101007.44;5077404;28;20040;-47
2022/01/02 09:23:16;;;;;;;10.90;3.88;;;;;;;15.94;100.00;100998.19;5093729;28;20484;-45
2022/01/02 09:25:42;;;;;;;9.40;4.35;;;;;;;15.90;100.00;100989.72;5095296;28;20032;-45
2022/01/02 09:28:09;;;;;;;10.68;4.05;;;;;;;16.27;100.00;100983.41;5093739;28;20493;-50
2022/01/02 09:30:35;;;;;;;10.45;4.15;;;;;;;16.00;100.00;100999.97;5093763;28;20067;-45
2022/01/02 09:33:01;;;;;;;11.05;4.75;;;;;;;16.07;100.00;100997.19;5094814;28;20032;-46
2022/01/02 09:35:27;;;;;;;9.85;4.35;;;;;;;16.24;100.00;100997.38;5094875;28;20040;-43
2022/01/02 09:37:52;;;;;;;12.70;4.03;;;;;;;15.95;100.00;100995.25;5094827;28;20120;-45
2022/01/02 09:40:19;;;;;;;11.07;4.70;;;;;;;16.27;100.00;100996.91;5077296;28;20043;-44
2022/01/02 09:42:44;;;;;;;10.00;4.25;;;;;;;16.12;100.00;100995.44;5095397;28;20032;-45
2022/01/02 09:45:11;;;;;;;13.00;5.05;;;;;;;16.51;100.00;100989.72;5095412;28;20495;-46
2022/01/02 09:47:37;;;;;;;12.13;5.23;;;;;;;16.32;100.00;100999.72;5093731;28;20079;-46
2022/01/02 09:50:05;;;;;;;10.20;5.13;;;;;;;16.87;100.00;100997.88;5095089;28;20308;-48
2022/01/02 09:52:30;;;;;;;9.47;5.67;;;;;;;16.52;100.00;101012.13;5093758;28;20040;-44
2022/01/02 09:54:56;;;;;;;7.05;4.25;;;;;;;17.48;100.00;101016.53;5094739;28;20274;-47
2022/01/02 09:57:22;;;;;;;11.77;5.05;;;;;;;17.87;100.00;101014.09;5076717;28;20047;-44
2022/01/02 09:59:47;;;;;;;10.17;4.40;;;;;;;18.80;100.00;101031.22;5093457;28;20399;-44
2022/01/02 10:02:13;;;;;;;16.00;6.17;;;;;;;17.26;100.00;100998.22;5093967;28;20276;-47
2022/01/02 10:04:40;;;;;;;9.65;4.57;;;;;;;17.07;100.00;101002.94;5094550;28;20272;-44
2022/01/02 10:07:29;;;;;;;11.33;5.13;;;;;;;16.82;100.00;101013.94;5093438;28;20051;-46
2022/01/02 10:09:54;;;;;;;16.73;4.80;;;;;;;17.01;100.00;101002.00;5094455;28;20724;-46
2022/01/02 10:12:29;;;;;;;14.95;4.97;;;;;;;17.36;100.00;100997.63;5094569;28;20267;-47
2022/01/02 10:15:06;;;;;;;10.37;5.17;;;;;;;17.71;100.00;101009.44;5093891;28;20055;-47
2022/01/02 10:18:13;;;;;;;11.10;5.37;;;;;;;17.43;100.00;101009.16;5094550;28;20267;-47
2022/01/02 10:20:45;;;;;;;10.67;4.97;;;;;;;17.07;100.00;101002.94;5093181;28;20750;-49
2022/01/02 10:23:18;;;;;;;11.87;5.57;;;;;;;17.46;100.00;100999.72;5093331;28;20272;-46
2022/01/02 10:25:55;;;;;;;9.60;4.80;;;;;;;18.19;100.00;101019.06;5094150;28;20291;-46
2022/01/02 10:28:36;;;;;;;9.03;4.13;;;;;;;18.58;100.00;100994.03;5093863;28;20736;-45
2022/01/02 10:31:08;;;;;;;11.13;5.50;;;;;;;19.06;100.00;100989.09;5093771;28;20337;-46
2022/01/02 10:33:49;;;;;;;11.77;5.13;;;;;;;18.87;100.00;100993.13;5093734;28;20459;-44
2022/01/02 10:36:45;;;;;;;9.97;4.63;;;;;;;20.12;100.00;100992.84;5092446;28;20268;-49
2022/01/02 10:39:14;;;;;;;9.27;4.30;;;;;;;19.83;100.00;100991.16;5093952;28;20059;-45
2022/01/02 10:41:42;;;;;;;8.73;4.17;;;;;;;18.63;100.00;101010.38;5092382;28;20036;-47
2022/01/02 10:44:23;;;;;;;12.50;4.30;;;;;;;17.69;100.00;101006.16;5076206;28;20040;-44
2022/01/02 10:47:08;;;;;;;10.03;4.57;;;;;;;17.74;100.00;100980.03;5093580;28;20068;-46
2022/01/02 10:49:53;;;;;;;14.70;4.70;;;;;;;17.11;100.00;101011.41;5091982;28;20269;-46
2022/01/02 10:52:41;;;;;;;11.70;3.77;;;;;;;17.08;100.00;100993.78;5092131;28;20462;-47
2022/01/02 10:55:18;;;;;;;8.90;4.72;;;;;;;17.41;100.00;100980.72;5093954;28;20256;-45
2022/01/02 10:57:49;;;;;;;11.50;4.57;;;;;;;17.04;100.00;100996.13;5092327;28;20040;-48
2022/01/02 11:00:23;;;;;;;11.83;4.83;;;;;;;17.39;100.00;100996.34;5093364;28;20291;-47
2022/01/02 11:02:48;;;;;;;10.87;4.70;;;;;;;17.04;100.00;100974.50;5093856;28;20277;-46
2022/01/02 11:05:16;;;;;;;10.90;4.73;;;;;;;17.18;100.00;100990.50;5093142;28;20281;-44
2022/01/02 11:07:47;;;;;;;17.20;5.10;;;;;;;17.03;100.00;100997.19;5093285;28;20288;-48
2022/01/02 11:10:16;;;;;;;16.53;4.80;;;;;;;17.10;100.00;100997.06;5092138;28;20318;-47
2022/01/02 11:12:43;;;;;;;11.50;4.37;;;;;;;17.15;100.00;101001.78;5092447;28;20725;-45
2022/01/02 11:15:11;;;;;;;17.67;4.87;;;;;;;17.18;100.00;100990.50;5093004;28;20279;-45
2022/01/02 11:17:37;;;;;;;11.50;4.27;;;;;;;17.11;100.00;101012.22;5093114;28;20300;-46
2022/01/02 11:20:15;;;;;;;17.45;4.30;;;;;;;17.09;100.00;101008.13;5092481;28;20697;-43
2022/01/02 11:22:58;;;;;;;13.63;4.90;;;;;;;17.53;100.00;100999.59;5092036;28;20110;-43
2022/01/02 11:25:42;;;;;;;12.63;4.03;;;;;;;17.28;100.00;101004.22;5093214;28;20302;-44